sensor_id;sensor_type;location;lat;lon;timestamp;pressure;altitude;pressure_sealevel;temperature;humidity
76095;BME280;64821;13.710;100.604;2024-03-23T00:53:01;100990.53;;;44.52;29.98
76095;BME280;64821;13.710;100.604;2024-03-23T00:54:03;101001.31;;;44.57;29.97
76095;BME280;64821;13.710;100.604;2024-03-23T00:55:06;100989.75;;;44.48;29.81
76095;BME280;64821;13.710;100.604;2024-03-23T00:56:08;101013.69;;;44.59;29.92
76095;BME280;64821;13.710;100.604;2024-03-23T00:57:11;100999.31;;;44.50;29.87
76095;BME280;64821;13.710;100.604;2024-03-23T00:58:13;100991.72;;;44.47;30.02
76095;BME280;64821;13.710;100.604;2024-03-23T00:59:16;101008.50;;;44.61;29.69
76095;BME280;64821;13.710;100.604;2024-03-23T01:00:19;101010.50;;;44.65;29.85
76095;BME280;64821;13.710;100.604;2024-03-23T01:01:21;101012.50;;;44.64;29.97
76095;BME280;64821;13.710;100.604;2024-03-23T01:02:24;101004.50;;;44.66;30.27
76095;BME280;64821;13.710;100.604;2024-03-23T01:03:26;101005.69;;;44.69;29.88
76095;BME280;64821;13.710;100.604;2024-03-23T01:04:29;101012.50;;;44.75;30.12
76095;BME280;64821;13.710;100.604;2024-03-23T01:05:31;101005.31;;;44.77;30.13
76095;BME280;64821;13.710;100.604;2024-03-23T01:06:33;101013.28;;;44.79;29.66
76095;BME280;64821;13.710;100.604;2024-03-23T01:07:36;101007.69;;;44.86;29.65
76095;BME280;64821;13.710;100.604;2024-03-23T01:08:40;101009.69;;;44.82;29.56
76095;BME280;64821;13.710;100.604;2024-03-23T01:09:43;101011.69;;;44.85;29.74
76095;BME280;64821;13.710;100.604;2024-03-23T01:10:55;101013.63;;;44.98;29.40
76095;BME280;64821;13.710;100.604;2024-03-23T01:11:57;101018.84;;;45.00;29.82
76095;BME280;64821;13.710;100.604;2024-03-23T01:13:00;101020.06;;;44.92;29.50
76095;BME280;64821;13.710;100.604;2024-03-23T01:14:02;101017.25;;;44.92;29.69
76095;BME280;64821;13.710;100.604;2024-03-23T01:15:08;101027.22;;;44.96;29.55
76095;BME280;64821;13.710;100.604;2024-03-23T01:16:11;101022.06;;;44.91;29.43
76095;BME280;64821;13.710;100.604;2024-03-23T01:17:14;101020.81;;;44.96;29.44
76095;BME280;64821;13.710;100.604;2024-03-23T01:18:16;101023.63;;;44.99;29.22
76095;BME280;64821;13.710;100.604;2024-03-23T01:19:18;101016.84;;;45.01;29.34
76095;BME280;64821;13.710;100.604;2024-03-23T01:20:21;101017.63;;;45.12;29.35
76095;BME280;64821;13.710;100.604;2024-03-23T01:21:23;101012.44;;;45.14;29.39
76095;BME280;64821;13.710;100.604;2024-03-23T01:22:26;101018.00;;;45.17;29.54
76095;BME280;64821;13.710;100.604;2024-03-23T01:23:28;101017.59;;;45.19;29.40
76095;BME280;64821;13.710;100.604;2024-03-23T01:24:32;101005.22;;;45.09;28.46
76095;BME280;64821;13.710;100.604;2024-03-23T01:25:35;101024.78;;;45.23;29.11
76095;BME280;64821;13.710;100.604;2024-03-23T01:26:37;101015.59;;;45.19;28.81
76095;BME280;64821;13.710;100.604;2024-03-23T01:27:40;101012.41;;;45.21;29.26
76095;BME280;64821;13.710;100.604;2024-03-23T01:28:42;101031.16;;;45.34;29.08
76095;BME280;64821;13.710;100.604;2024-03-23T01:29:45;101028.31;;;45.42;28.89
76095;BME280;64821;13.710;100.604;2024-03-23T01:30:47;101021.13;;;45.44;28.98
76095;BME280;64821;13.710;100.604;2024-03-23T01:31:50;101035.06;;;45.48;28.72
76095;BME280;64821;13.710;100.604;2024-03-23T01:32:52;101041.09;;;45.50;28.78
76095;BME280;64821;13.710;100.604;2024-03-23T01:33:55;101036.28;;;45.54;28.96
76095;BME280;64821;13.710;100.604;2024-03-23T01:34:57;101037.84;;;45.58;28.63
76095;BME280;64821;13.710;100.604;2024-03-23T01:36:00;101041.44;;;45.62;28.48
76095;BME280;64821;13.710;100.604;2024-03-23T01:37:02;101038.25;;;45.64;28.66
76095;BME280;64821;13.710;100.604;2024-03-23T01:38:05;101038.63;;;45.66;28.37
76095;BME280;64821;13.710;100.604;2024-03-23T01:39:07;101037.44;;;45.63;28.69
76095;BME280;64821;13.710;100.604;2024-03-23T01:40:12;101046.59;;;45.67;27.54
76095;BME280;64821;13.710;100.604;2024-03-23T01:41:15;101048.16;;;45.76;28.77
76095;BME280;64821;13.710;100.604;2024-03-23T01:42:17;101045.75;;;45.81;28.60
76095;BME280;64821;13.710;100.604;2024-03-23T01:43:20;101048.13;;;45.83;28.48
76095;BME280;64821;13.710;100.604;2024-03-23T01:44:22;101046.50;;;45.85;28.04
76095;BME280;64821;13.710;100.604;2024-03-23T01:45:25;101045.28;;;45.86;28.54
76095;BME280;64821;13.710;100.604;2024-03-23T01:46:27;101060.09;;;45.87;28.34
76095;BME280;64821;13.710;100.604;2024-03-23T01:47:30;101052.16;;;45.78;28.71
76095;BME280;64821;13.710;100.604;2024-03-23T01:48:32;101058.16;;;45.80;28.68
76095;BME280;64821;13.710;100.604;2024-03-23T01:49:35;101056.94;;;45.78;28.24
76095;BME280;64821;13.710;100.604;2024-03-23T01:50:38;101056.09;;;45.84;28.41
76095;BME280;64821;13.710;100.604;2024-03-23T01:51:40;101063.31;;;45.89;28.34
76095;BME280;64821;13.710;100.604;2024-03-23T01:52:43;101059.31;;;45.90;28.09
76095;BME280;64821;13.710;100.604;2024-03-23T01:53:46;101064.91;;;45.86;28.17
76095;BME280;64821;13.710;100.604;2024-03-23T01:54:48;101068.91;;;45.85;28.43
76095;BME280;64821;13.710;100.604;2024-03-23T01:55:53;101062.94;;;45.83;27.31
76095;BME280;64821;13.710;100.604;2024-03-23T01:56:56;101045.00;;;45.74;28.22
76095;BME280;64821;13.710;100.604;2024-03-23T01:57:59;101038.53;;;45.80;28.10
76095;BME280;64821;13.710;100.604;2024-03-23T01:59:01;101067.66;;;45.97;27.93
76095;BME280;64821;13.710;100.604;2024-03-23T02:00:05;101055.31;;;45.91;27.64
76095;BME280;64821;13.710;100.604;2024-03-23T02:01:08;101064.50;;;45.91;28.04
76095;BME280;64821;13.710;100.604;2024-03-23T02:02:10;101058.13;;;45.87;27.85
76095;BME280;64821;13.710;100.604;2024-03-23T02:03:27;101050.81;;;46.04;27.60
76095;BME280;64821;13.710;100.604;2024-03-23T02:04:30;101065.19;;;46.13;27.60
76095;BME280;64821;13.710;100.604;2024-03-23T02:05:32;101065.19;;;46.13;28.12
76095;BME280;64821;13.710;100.604;2024-03-23T02:06:35;101062.31;;;46.20;27.25
76095;BME280;64821;13.710;100.604;2024-03-23T02:07:38;101056.78;;;46.10;27.48
76095;BME280;64821;13.710;100.604;2024-03-23T02:08:41;101063.91;;;46.25;27.83
76095;BME280;64821;13.710;100.604;2024-03-23T02:09:44;101065.44;;;46.33;27.88
76095;BME280;64821;13.710;100.604;2024-03-23T02:10:47;101057.47;;;46.24;27.59
76095;BME280;64821;13.710;100.604;2024-03-23T02:11:51;101066.31;;;46.23;26.44
76095;BME280;64821;13.710;100.604;2024-03-23T02:12:54;101073.91;;;46.22;27.55
76095;BME280;64821;13.710;100.604;2024-03-23T02:13:56;101070.00;;;46.09;27.59
76095;BME280;64821;13.710;100.604;2024-03-23T02:14:59;101070.69;;;46.24;27.43
76095;BME280;64821;13.710;100.604;2024-03-23T02:16:01;101069.03;;;46.33;27.47
76095;BME280;64821;13.710;100.604;2024-03-23T02:17:04;101063.44;;;46.33;27.59
76095;BME280;64821;13.710;100.604;2024-03-23T02:18:07;101072.94;;;46.47;27.14
76095;BME280;64821;13.710;100.604;2024-03-23T02:19:10;101064.13;;;46.52;27.42
76095;BME280;64821;13.710;100.604;2024-03-23T02:20:12;101056.53;;;46.49;27.18
76095;BME280;64821;13.710;100.604;2024-03-23T02:21:16;101070.03;;;46.61;26.36
76095;BME280;64821;13.710;100.604;2024-03-23T02:22:18;101069.22;;;46.64;26.85
76095;BME280;64821;13.710;100.604;2024-03-23T02:23:22;101073.28;;;46.56;26.64
76095;BME280;64821;13.710;100.604;2024-03-23T02:24:25;101080.06;;;46.58;27.21
76095;BME280;64821;13.710;100.604;2024-03-23T02:25:27;101079.25;;;46.61;27.30
76095;BME280;64821;13.710;100.604;2024-03-23T02:26:30;101074.00;;;46.67;26.83
76095;BME280;64821;13.710;100.604;2024-03-23T02:27:33;101070.81;;;46.65;27.13
76095;BME280;64821;13.710;100.604;2024-03-23T02:28:36;101075.59;;;46.71;26.32
76095;BME280;64821;13.710;100.604;2024-03-23T02:29:39;101081.13;;;46.78;27.18
76095;BME280;64821;13.710;100.604;2024-03-23T02:30:41;101077.13;;;46.76;26.63
76095;BME280;64821;13.710;100.604;2024-03-23T02:31:44;101077.41;;;46.89;26.77
76095;BME280;64821;13.710;100.604;2024-03-23T02:32:46;101081.91;;;46.79;27.27
76095;BME280;64821;13.710;100.604;2024-03-23T02:33:49;101077.50;;;46.78;27.26
76095;BME280;64821;13.710;100.604;2024-03-23T02:34:51;101087.41;;;46.90;26.60
76095;BME280;64821;13.710;100.604;2024-03-23T02:35:56;101075.00;;;46.91;25.74
76095;BME280;64821;13.710;100.604;2024-03-23T02:36:59;101077.84;;;46.84;27.07
76095;BME280;64821;13.710;100.604;2024-03-23T02:38:01;101074.13;;;46.94;26.18
76095;BME280;64821;13.710;100.604;2024-03-23T02:39:06;101078.50;;;46.98;25.84
76095;BME280;64821;13.710;100.604;2024-03-23T02:40:08;101080.13;;;46.96;26.28
76095;BME280;64821;13.710;100.604;2024-03-23T02:41:11;101090.16;;;46.93;26.66
76095;BME280;64821;13.710;100.604;2024-03-23T02:42:13;101076.94;;;46.94;26.98
76095;BME280;64821;13.710;100.604;2024-03-23T02:43:16;101080.22;;;46.89;27.02
76095;BME280;64821;13.710;100.604;2024-03-23T02:44:18;101080.59;;;46.91;26.73
76095;BME280;64821;13.710;100.604;2024-03-23T02:45:21;101078.50;;;46.98;26.69
76095;BME280;64821;13.710;100.604;2024-03-23T02:46:23;101083.69;;;47.03;26.88
76095;BME280;64821;13.710;100.604;2024-03-23T02:47:26;101068.91;;;46.99;26.09
76095;BME280;64821;13.710;100.604;2024-03-23T02:48:28;101086.78;;;47.12;26.35
76095;BME280;64821;13.710;100.604;2024-03-23T02:49:31;101081.56;;;47.14;26.21
76095;BME280;64821;13.710;100.604;2024-03-23T02:50:33;101087.84;;;47.26;25.93
76095;BME280;64821;13.710;100.604;2024-03-23T02:51:36;101084.56;;;47.34;25.79
76095;BME280;64821;13.710;100.604;2024-03-23T02:52:38;101084.94;;;47.40;25.91
76095;BME280;64821;13.710;100.604;2024-03-23T02:53:41;101089.28;;;47.44;26.08
76095;BME280;64821;13.710;100.604;2024-03-23T02:54:45;101087.75;;;47.40;25.20
76095;BME280;64821;13.710;100.604;2024-03-23T02:55:48;101091.28;;;47.44;25.60
76095;BME280;64821;13.710;100.604;2024-03-23T02:56:50;101090.88;;;47.45;25.58
76095;BME280;64821;13.710;100.604;2024-03-23T02:57:53;101090.44;;;47.47;25.58
76095;BME280;64821;13.710;100.604;2024-03-23T02:58:55;101087.22;;;47.48;25.94
76095;BME280;64821;13.710;100.604;2024-03-23T02:59:58;101085.56;;;47.51;25.50
76095;BME280;64821;13.710;100.604;2024-03-23T03:01:00;101087.59;;;47.50;25.45
76095;BME280;64821;13.710;100.604;2024-03-23T03:02:03;101081.22;;;47.46;25.98
76095;BME280;64821;13.710;100.604;2024-03-23T03:03:05;101083.38;;;47.32;24.99
76095;BME280;64821;13.710;100.604;2024-03-23T03:04:08;101078.69;;;47.22;25.74
76095;BME280;64821;13.710;100.604;2024-03-23T03:05:10;101088.97;;;47.32;25.65
76095;BME280;64821;13.710;100.604;2024-03-23T03:06:23;101077.34;;;47.37;23.95
76095;BME280;64821;13.710;100.604;2024-03-23T03:07:25;101070.50;;;47.34;25.40
76095;BME280;64821;13.710;100.604;2024-03-23T03:08:28;101086.81;;;47.50;25.95
76095;BME280;64821;13.710;100.604;2024-03-23T03:09:30;101081.97;;;47.50;25.45
76095;BME280;64821;13.710;100.604;2024-03-23T03:10:35;101080.75;;;47.52;24.64
76095;BME280;64821;13.710;100.604;2024-03-23T03:11:37;101085.56;;;47.51;25.73
76095;BME280;64821;13.710;100.604;2024-03-23T03:12:40;101092.38;;;47.54;25.20
76095;BME280;64821;13.710;100.604;2024-03-23T03:13:42;101073.94;;;47.53;25.43
76095;BME280;64821;13.710;100.604;2024-03-23T03:14:44;101087.09;;;47.59;25.06
76095;BME280;64821;13.710;100.604;2024-03-23T03:15:47;101089.53;;;47.57;25.30
76095;BME280;64821;13.710;100.604;2024-03-23T03:16:50;101089.09;;;47.59;25.54
76095;BME280;64821;13.710;100.604;2024-03-23T03:17:52;101082.28;;;47.60;25.62
76095;BME280;64821;13.710;100.604;2024-03-23T03:18:54;101080.59;;;47.66;25.03
76095;BME280;64821;13.710;100.604;2024-03-23T03:19:57;101076.56;;;47.67;25.31
76095;BME280;64821;13.710;100.604;2024-03-23T03:20:59;101078.19;;;47.64;25.11
76095;BME280;64821;13.710;100.604;2024-03-23T20:01:46;100883.19;;;43.78;32.05
76095;BME280;64821;13.710;100.604;2024-03-23T20:02:48;100895.94;;;43.79;31.01
76095;BME280;64821;13.710;100.604;2024-03-23T20:03:51;100906.69;;;43.70;31.11
76095;BME280;64821;13.710;100.604;2024-03-23T20:04:53;100905.09;;;43.69;31.21
76095;BME280;64821;13.710;100.604;2024-03-23T20:05:59;100903.91;;;43.70;32.75
76095;BME280;64821;13.710;100.604;2024-03-23T20:07:02;100903.91;;;43.70;31.16
76095;BME280;64821;13.710;100.604;2024-03-23T20:08:05;100906.69;;;43.70;31.27
76095;BME280;64821;13.710;100.604;2024-03-23T20:09:08;100899.53;;;43.73;31.06
76095;BME280;64821;13.710;100.604;2024-03-23T20:10:10;100901.50;;;43.69;31.51
76095;BME280;64821;13.710;100.604;2024-03-23T20:11:13;100903.50;;;43.72;31.25
76095;BME280;64821;13.710;100.604;2024-03-23T20:12:15;100896.75;;;43.73;31.46
76095;BME280;64821;13.710;100.604;2024-03-23T20:13:18;100891.94;;;43.70;31.33
76095;BME280;64821;13.710;100.604;2024-03-23T20:14:20;100901.53;;;43.65;31.45
76095;BME280;64821;13.710;100.604;2024-03-23T20:15:23;100899.09;;;43.60;31.44
76095;BME280;64821;13.710;100.604;2024-03-23T20:16:25;100877.56;;;43.46;31.69
76095;BME280;64821;13.710;100.604;2024-03-23T20:17:29;100893.53;;;43.60;32.44
76095;BME280;64821;13.710;100.604;2024-03-23T20:18:32;100884.38;;;43.56;31.39
76095;BME280;64821;13.710;100.604;2024-03-23T20:19:35;100893.13;;;43.62;31.80
76095;BME280;64821;13.710;100.604;2024-03-23T20:20:37;100873.56;;;43.54;31.82
76095;BME280;64821;13.710;100.604;2024-03-23T20:21:39;100899.53;;;43.66;31.54
76095;BME280;64821;13.710;100.604;2024-03-23T20:22:42;100885.56;;;43.62;31.53
76095;BME280;64821;13.710;100.604;2024-03-23T20:23:44;100845.28;;;43.38;31.46
76095;BME280;64821;13.710;100.604;2024-03-23T20:24:47;100895.94;;;43.72;31.25
76095;BME280;64821;13.710;100.604;2024-03-23T20:25:52;100896.34;;;43.74;32.60
76095;BME280;64821;13.710;100.604;2024-03-23T20:26:54;100871.19;;;43.53;31.43
76095;BME280;64821;13.710;100.604;2024-03-23T20:27:57;100893.94;;;43.66;31.48
76095;BME280;64821;13.710;100.604;2024-03-23T20:28:59;100883.97;;;43.65;31.69
76095;BME280;64821;13.710;100.604;2024-03-23T20:30:03;100893.13;;;43.69;31.30
76095;BME280;64821;13.710;100.604;2024-03-23T20:31:06;100868.00;;;43.54;31.25
76095;BME280;64821;13.710;100.604;2024-03-23T20:32:08;100899.94;;;43.71;31.66
76095;BME280;64821;13.710;100.604;2024-03-23T20:33:12;100894.34;;;43.71;32.28
76095;BME280;64821;13.710;100.604;2024-03-23T20:34:15;100878.78;;;43.63;31.71
76095;BME280;64821;13.710;100.604;2024-03-23T20:35:18;100885.56;;;43.69;31.78
76095;BME280;64821;13.710;100.604;2024-03-23T20:36:20;100895.94;;;43.72;31.50
76095;BME280;64821;13.710;100.604;2024-03-23T20:37:23;100902.72;;;43.78;31.72
76095;BME280;64821;13.710;100.604;2024-03-23T20:38:25;100879.59;;;43.60;31.69
76095;BME280;64821;13.710;100.604;2024-03-23T20:39:27;100907.91;;;43.80;31.63
76095;BME280;64821;13.710;100.604;2024-03-23T20:40:30;100903.91;;;43.81;31.61
76095;BME280;64821;13.710;100.604;2024-03-23T20:41:32;100907.13;;;43.83;31.58
76095;BME280;64821;13.710;100.604;2024-03-23T20:42:35;100891.56;;;43.75;31.68
76095;BME280;64821;13.710;100.604;2024-03-23T20:43:38;100912.72;;;43.86;31.69
76095;BME280;64821;13.710;100.604;2024-03-23T20:44:40;100887.97;;;43.71;31.76
76095;BME280;64821;13.710;100.604;2024-03-23T20:45:43;100911.50;;;43.77;31.68
76095;BME280;64821;13.710;100.604;2024-03-23T20:46:45;100870.44;;;43.56;31.50
76095;BME280;64821;13.710;100.604;2024-03-23T20:47:47;100905.13;;;43.83;31.39
76095;BME280;64821;13.710;100.604;2024-03-23T20:48:52;100895.94;;;43.79;32.08
76095;BME280;64821;13.710;100.604;2024-03-23T20:49:54;100899.94;;;43.75;31.74
76095;BME280;64821;13.710;100.604;2024-03-23T20:50:57;100897.16;;;43.75;31.71
76095;BME280;64821;13.710;100.604;2024-03-23T20:52:00;100890.38;;;43.65;31.92
76095;BME280;64821;13.710;100.604;2024-03-23T20:53:02;100872.41;;;43.56;32.08
76095;BME280;64821;13.710;100.604;2024-03-23T20:54:05;100907.50;;;43.71;32.07
76095;BME280;64821;13.710;100.604;2024-03-23T20:55:09;100900.34;;;43.66;32.39
76095;BME280;64821;13.710;100.604;2024-03-23T20:56:11;100879.94;;;43.51;31.79
76095;BME280;64821;13.710;100.604;2024-03-23T20:57:13;100899.53;;;43.66;31.85
76095;BME280;64821;13.710;100.604;2024-03-23T20:58:16;100908.25;;;43.53;32.08
76095;BME280;64821;13.710;100.604;2024-03-23T20:59:19;100910.63;;;43.51;32.41
76095;BME280;64821;13.710;100.604;2024-03-23T21:00:21;100895.06;;;43.40;32.17
76095;BME280;64821;13.710;100.604;2024-03-23T21:01:23;100909.44;;;43.45;32.19
76095;BME280;64821;13.710;100.604;2024-03-23T21:02:26;100895.06;;;43.43;32.12
76095;BME280;64821;13.710;100.604;2024-03-23T21:03:28;100906.25;;;43.54;31.71
76095;BME280;64821;13.710;100.604;2024-03-23T21:04:33;100920.25;;;43.61;32.41
76095;BME280;64821;13.710;100.604;2024-03-23T21:05:35;100912.22;;;43.52;31.65
76095;BME280;64821;13.710;100.604;2024-03-23T21:06:37;100907.84;;;43.48;32.38
76095;BME280;64821;13.710;100.604;2024-03-23T21:07:40;100892.69;;;43.49;32.12
76095;BME280;64821;13.710;100.604;2024-03-23T21:08:43;100912.25;;;43.60;32.07
76095;BME280;64821;13.710;100.604;2024-03-23T21:09:45;100913.84;;;43.61;31.76
76095;BME280;64821;13.710;100.604;2024-03-23T21:10:51;100911.88;;;43.65;32.71
76095;BME280;64821;13.710;100.604;2024-03-23T21:11:54;100903.13;;;43.66;31.84
76095;BME280;64821;13.710;100.604;2024-03-23T21:12:56;100879.94;;;43.48;31.81
76095;BME280;64821;13.710;100.604;2024-03-23T21:13:59;100905.91;;;43.66;32.15
76095;BME280;64821;13.710;100.604;2024-03-23T21:15:01;100913.09;;;43.74;31.68
76095;BME280;64821;13.710;100.604;2024-03-23T21:16:04;100910.28;;;43.71;31.72
76095;BME280;64821;13.710;100.604;2024-03-23T21:17:06;100901.53;;;43.65;31.88
76095;BME280;64821;13.710;100.604;2024-03-23T21:18:09;100915.47;;;43.72;31.72
76095;BME280;64821;13.710;100.604;2024-03-23T21:19:11;100914.28;;;43.73;31.62
76095;BME280;64821;13.710;100.604;2024-03-23T21:20:15;100916.28;;;43.73;32.81
76095;BME280;64821;13.710;100.604;2024-03-23T21:21:18;100908.69;;;43.66;31.85
76095;BME280;64821;13.710;100.604;2024-03-23T21:22:21;100905.50;;;43.64;32.07
76095;BME280;64821;13.710;100.604;2024-03-23T21:23:24;100916.66;;;43.71;31.81
76095;BME280;64821;13.710;100.604;2024-03-23T21:24:26;100919.47;;;43.75;31.97
76095;BME280;64821;13.710;100.604;2024-03-23T21:25:29;100913.47;;;43.69;31.92
76095;BME280;64821;13.710;100.604;2024-03-23T21:26:31;100908.69;;;43.70;31.97
76095;BME280;64821;13.710;100.604;2024-03-23T21:27:33;100920.28;;;43.75;32.12
76095;BME280;64821;13.710;100.604;2024-03-23T21:28:36;100924.66;;;43.76;31.89
76095;BME280;64821;13.710;100.604;2024-03-23T21:29:38;100927.84;;;43.78;32.21
76095;BME280;64821;13.710;100.604;2024-03-23T21:30:41;100921.06;;;43.76;31.81
76095;BME280;64821;13.710;100.604;2024-03-23T21:31:43;100915.88;;;43.74;32.02
76095;BME280;64821;13.710;100.604;2024-03-23T21:32:46;100923.47;;;43.77;32.09
76095;BME280;64821;13.710;100.604;2024-03-23T21:33:48;100922.25;;;43.78;31.83
76095;BME280;64821;13.710;100.604;2024-03-23T21:34:51;100930.22;;;43.69;31.93
76095;BME280;64821;13.710;100.604;2024-03-23T21:35:58;100925.06;;;43.68;32.94
76095;BME280;64821;13.710;100.604;2024-03-23T21:37:00;100918.25;;;43.69;32.00
76095;BME280;64821;13.710;100.604;2024-03-23T21:38:03;100900.25;;;43.52;32.35
76095;BME280;64821;13.710;100.604;2024-03-23T21:39:06;100907.03;;;43.44;31.56
76095;BME280;64821;13.710;100.604;2024-03-23T21:40:09;100929.81;;;43.57;32.72
76095;BME280;64821;13.710;100.604;2024-03-23T21:41:11;100920.63;;;43.56;31.93
76095;BME280;64821;13.710;100.604;2024-03-23T21:42:14;100933.38;;;43.61;32.19
76095;BME280;64821;13.710;100.604;2024-03-23T21:43:16;100939.78;;;43.61;32.06
76095;BME280;64821;13.710;100.604;2024-03-23T21:44:19;100938.16;;;43.60;32.04
76095;BME280;64821;13.710;100.604;2024-03-23T21:45:21;100930.16;;;43.55;32.47
76095;BME280;64821;13.710;100.604;2024-03-23T21:46:24;100933.41;;;43.57;32.55
76095;BME280;64821;13.710;100.604;2024-03-23T21:47:26;100949.69;;;43.51;32.08
76095;BME280;64821;13.710;100.604;2024-03-23T21:48:29;100943.72;;;43.53;32.12
76095;BME280;64821;13.710;100.604;2024-03-23T21:49:32;100929.75;;;43.49;32.21
76095;BME280;64821;13.710;100.604;2024-03-23T21:50:34;100936.94;;;43.54;32.24
76095;BME280;64821;13.710;100.604;2024-03-23T21:51:38;100925.75;;;43.43;33.05
76095;BME280;64821;13.710;100.604;2024-03-23T21:52:41;100937.72;;;43.51;32.15
76095;BME280;64821;13.710;100.604;2024-03-23T21:53:44;100937.31;;;43.38;32.78
76095;BME280;64821;13.710;100.604;2024-03-23T21:54:46;100920.91;;;43.30;32.69
76095;BME280;64821;13.710;100.604;2024-03-23T21:55:50;100952.88;;;43.50;32.74
76095;BME280;64821;13.710;100.604;2024-03-23T21:56:53;100942.16;;;43.56;32.43
76095;BME280;64821;13.710;100.604;2024-03-23T21:57:55;100947.69;;;43.52;32.40
76095;BME280;64821;13.710;100.604;2024-03-23T21:58:58;100945.28;;;43.50;32.73
76095;BME280;64821;13.710;100.604;2024-03-23T22:00:01;100953.28;;;43.52;32.30
76095;BME280;64821;13.710;100.604;2024-03-23T22:01:05;100940.09;;;43.38;33.01
76095;BME280;64821;13.710;100.604;2024-03-23T22:02:07;100948.88;;;43.44;32.37
76095;BME280;64821;13.710;100.604;2024-03-23T22:03:10;100936.50;;;43.38;32.45
76095;BME280;64821;13.710;100.604;2024-03-23T22:04:12;100957.66;;;43.53;32.41
76095;BME280;64821;13.710;100.604;2024-03-23T22:05:15;100951.25;;;43.49;32.24
76095;BME280;64821;13.710;100.604;2024-03-23T22:06:17;100946.50;;;43.46;32.42
76095;BME280;64821;13.710;100.604;2024-03-23T22:07:21;100947.66;;;43.41;33.13
76095;BME280;64821;13.710;100.604;2024-03-23T22:08:24;100958.41;;;43.39;32.58
76095;BME280;64821;13.710;100.604;2024-03-23T22:09:27;100950.84;;;43.40;32.51
76095;BME280;64821;13.710;100.604;2024-03-23T22:10:31;100953.22;;;43.34;32.87
76095;BME280;64821;13.710;100.604;2024-03-23T22:11:33;100972.34;;;43.39;32.73
76095;BME280;64821;13.710;100.604;2024-03-23T22:12:36;100971.56;;;43.39;32.61
76095;BME280;64821;13.710;100.604;2024-03-23T22:13:39;100947.63;;;43.27;32.69
76095;BME280;64821;13.710;100.604;2024-03-23T22:14:42;100977.53;;;43.41;32.67
76095;BME280;64821;13.710;100.604;2024-03-23T22:15:44;100972.72;;;43.31;32.78
76095;BME280;64821;13.710;100.604;2024-03-23T22:16:47;100974.72;;;43.30;32.75
76095;BME280;64821;13.710;100.604;2024-03-23T22:17:50;100968.75;;;43.32;32.96
76095;BME280;64821;13.710;100.604;2024-03-23T22:18:52;100976.34;;;43.35;32.76
76095;BME280;64821;13.710;100.604;2024-03-23T22:19:55;100979.50;;;43.33;32.75
76095;BME280;64821;13.710;100.604;2024-03-23T22:20:58;100960.81;;;43.37;33.04
76095;BME280;64821;13.710;100.604;2024-03-23T22:22:00;100988.75;;;43.48;32.53
76095;BME280;64821;13.710;100.604;2024-03-23T22:23:04;100995.06;;;43.41;33.40
76095;BME280;64821;13.710;100.604;2024-03-23T22:24:07;100983.94;;;43.45;32.76
76095;BME280;64821;13.710;100.604;2024-03-23T22:25:10;100988.31;;;43.39;32.95
76095;BME280;64821;13.710;100.604;2024-03-23T22:26:12;100992.28;;;43.38;32.83
76095;BME280;64821;13.710;100.604;2024-03-23T22:27:15;100985.09;;;43.40;32.73
76095;BME280;64821;13.710;100.604;2024-03-23T22:28:17;100985.91;;;43.41;32.35
76095;BME280;64821;13.710;100.604;2024-03-23T22:29:20;100982.75;;;43.39;32.79
76095;BME280;64821;13.710;100.604;2024-03-23T22:30:22;100986.72;;;43.38;32.55
76095;BME280;64821;13.710;100.604;2024-03-23T22:31:25;100988.72;;;43.44;32.62
76095;BME280;64821;13.710;100.604;2024-03-23T22:32:27;100984.31;;;43.36;32.73
76095;BME280;64821;13.710;100.604;2024-03-23T22:33:30;100994.31;;;43.44;32.76
76095;BME280;64821;13.710;100.604;2024-03-23T22:34:33;100993.50;;;43.44;32.37
76095;BME280;64821;13.710;100.604;2024-03-23T22:35:35;100988.31;;;43.42;32.67
76095;BME280;64821;13.710;100.604;2024-03-23T22:36:38;100994.31;;;43.44;32.85
76095;BME280;64821;13.710;100.604;2024-03-23T22:37:41;100991.88;;;43.39;32.78
76095;BME280;64821;13.710;100.604;2024-03-23T22:38:45;101001.47;;;43.38;33.02
76095;BME280;64821;13.710;100.604;2024-03-23T22:39:47;100997.06;;;43.41;32.42
76095;BME280;64821;13.710;100.604;2024-03-23T22:40:56;100972.34;;;43.29;33.73
76095;BME280;64821;13.710;100.604;2024-03-23T22:41:59;101002.66;;;43.44;32.93
76095;BME280;64821;13.710;100.604;2024-03-23T22:43:01;101001.06;;;43.43;32.59
76095;BME280;64821;13.710;100.604;2024-03-23T22:44:04;100999.47;;;43.39;33.13
76095;BME280;64821;13.710;100.604;2024-03-23T22:45:07;100985.88;;;43.34;32.87
76095;BME280;64821;13.710;100.604;2024-03-23T22:46:09;100997.03;;;43.27;32.79
76095;BME280;64821;13.710;100.604;2024-03-23T22:47:12;100993.03;;;43.24;33.00
76095;BME280;64821;13.710;100.604;2024-03-23T22:48:15;101009.78;;;43.31;32.76
76095;BME280;64821;13.710;100.604;2024-03-23T22:49:17;101009.81;;;43.35;32.75
76095;BME280;64821;13.710;100.604;2024-03-23T22:50:20;101006.63;;;43.40;32.82
76095;BME280;64821;13.710;100.604;2024-03-23T22:51:22;101008.63;;;43.43;32.64
76095;BME280;64821;13.710;100.604;2024-03-23T22:52:25;101010.25;;;43.47;32.45